sensor_id;sensor_type;location;lat;lon;timestamp;P1;durP1;ratioP1;P2;durP2;ratioP2
47519;SDS011;33252;48.122;11.538;2022-08-05T00:01:15;6.47;;;5.25;;
47519;SDS011;33252;48.122;11.538;2022-08-05T00:03:44;5.15;;;4.63;;
47519;SDS011;33252;48.122;11.538;2022-08-05T00:06:10;5.85;;;4.95;;
47519;SDS011;33252;48.122;11.538;2022-08-05T00:08:36;7.15;;;5.18;;
47519;SDS011;33252;48.122;11.538;2022-08-05T00:11:04;6.68;;;4.78;;
47519;SDS011;33252;48.122;11.538;2022-08-05T00:13:35;6.57;;;5.65;;
47519;SDS011;33252;48.122;11.538;2022-08-05T00:16:01;6.95;;;5.30;;
47519;SDS011;33252;48.122;11.538;2022-08-05T00:18:28;5.15;;;4.65;;
47519;SDS011;33252;48.122;11.538;2022-08-05T00:20:53;7.25;;;4.75;;
47519;SDS011;33252;48.122;11.538;2022-08-05T00:23:20;6.25;;;5.03;;
47519;SDS011;33252;48.122;11.538;2022-08-05T00:25:46;7.57;;;5.25;;
47519;SDS011;33252;48.122;11.538;2022-08-05T00:28:12;5.32;;;4.72;;
47519;SDS011;33252;48.122;11.538;2022-08-05T00:30:39;5.60;;;4.63;;
47519;SDS011;33252;48.122;11.538;2022-08-05T00:33:05;5.35;;;4.50;;
47519;SDS011;33252;48.122;11.538;2022-08-05T00:35:31;7.57;;;5.50;;
47519;SDS011;33252;48.122;11.538;2022-08-05T00:37:56;5.45;;;4.78;;
47519;SDS011;33252;48.122;11.538;2022-08-05T00:40:24;5.75;;;5.15;;
47519;SDS011;33252;48.122;11.538;2022-08-05T00:42:51;4.53;;;4.13;;
47519;SDS011;33252;48.122;11.538;2022-08-05T00:45:17;7.80;;;4.80;;
47519;SDS011;33252;48.122;11.538;2022-08-05T00:47:43;6.28;;;5.18;;
47519;SDS011;33252;48.122;11.538;2022-08-05T00:50:08;7.68;;;5.60;;
47519;SDS011;33252;48.122;11.538;2022-08-05T00:52:35;5.10;;;4.70;;
47519;SDS011;33252;48.122;11.538;2022-08-05T00:55:00;5.78;;;5.13;;
47519;SDS011;33252;48.122;11.538;2022-08-05T00:57:26;5.13;;;4.65;;
47519;SDS011;33252;48.122;11.538;2022-08-05T00:59:52;6.63;;;4.95;;
47519;SDS011;33252;48.122;11.538;2022-08-05T01:02:18;5.40;;;4.90;;
47519;SDS011;33252;48.122;11.538;2022-08-05T01:04:43;5.05;;;4.55;;
47519;SDS011;33252;48.122;11.538;2022-08-05T01:07:09;6.57;;;5.05;;
47519;SDS011;33252;48.122;11.538;2022-08-05T01:09:35;6.68;;;5.03;;
47519;SDS011;33252;48.122;11.538;2022-08-05T01:12:08;5.63;;;4.93;;
47519;SDS011;33252;48.122;11.538;2022-08-05T01:14:55;5.50;;;5.00;;
47519;SDS011;33252;48.122;11.538;2022-08-05T01:17:37;5.72;;;5.18;;
47519;SDS011;33252;48.122;11.538;2022-08-05T01:26:25;5.45;;;4.63;;
47519;SDS011;33252;48.122;11.538;2022-08-05T01:32:10;5.80;;;4.68;;
47519;SDS011;33252;48.122;11.538;2022-08-05T01:34:44;6.00;;;4.55;;
47519;SDS011;33252;48.122;11.538;2022-08-05T01:40:11;6.78;;;5.10;;
47519;SDS011;33252;48.122;11.538;2022-08-05T01:42:40;6.13;;;5.60;;
47519;SDS011;33252;48.122;11.538;2022-08-05T01:45:08;5.03;;;4.40;;
47519;SDS011;33252;48.122;11.538;2022-08-05T01:47:35;5.20;;;4.72;;
47519;SDS011;33252;48.122;11.538;2022-08-05T01:50:04;5.88;;;5.20;;
47519;SDS011;33252;48.122;11.538;2022-08-05T01:52:32;8.65;;;5.10;;
47519;SDS011;33252;48.122;11.538;2022-08-05T01:55:04;5.53;;;5.03;;
47519;SDS011;33252;48.122;11.538;2022-08-05T01:57:34;5.72;;;5.13;;
47519;SDS011;33252;48.122;11.538;2022-08-05T02:00:04;6.13;;;4.67;;
47519;SDS011;33252;48.122;11.538;2022-08-05T02:02:33;6.13;;;4.65;;
47519;SDS011;33252;48.122;11.538;2022-08-05T02:05:06;7.78;;;4.85;;
47519;SDS011;33252;48.122;11.538;2022-08-05T02:07:34;4.85;;;4.15;;
47519;SDS011;33252;48.122;11.538;2022-08-05T02:10:01;6.07;;;5.18;;
47519;SDS011;33252;48.122;11.538;2022-08-05T02:12:41;7.00;;;5.03;;
47519;SDS011;33252;48.122;11.538;2022-08-05T02:15:53;5.85;;;5.10;;
47519;SDS011;33252;48.122;11.538;2022-08-05T02:18:05;5.38;;;4.88;;
47519;SDS011;33252;48.122;11.538;2022-08-05T02:20:56;4.72;;;4.25;;
47519;SDS011;33252;48.122;11.538;2022-08-05T02:23:34;6.38;;;5.07;;
47519;SDS011;33252;48.122;11.538;2022-08-05T02:26:05;5.32;;;4.82;;
47519;SDS011;33252;48.122;11.538;2022-08-05T02:28:36;6.43;;;5.78;;
47519;SDS011;33252;48.122;11.538;2022-08-05T02:31:25;5.50;;;4.72;;
47519;SDS011;33252;48.122;11.538;2022-08-05T02:33:54;6.07;;;4.75;;
47519;SDS011;33252;48.122;11.538;2022-08-05T02:36:24;5.03;;;4.53;;
47519;SDS011;33252;48.122;11.538;2022-08-05T02:38:51;5.40;;;4.95;;
47519;SDS011;33252;48.122;11.538;2022-08-05T02:41:21;5.13;;;4.63;;
47519;SDS011;33252;48.122;11.538;2022-08-05T02:43:49;6.07;;;5.10;;
47519;SDS011;33252;48.122;11.538;2022-08-05T02:46:16;4.97;;;4.57;;
47519;SDS011;33252;48.122;11.538;2022-08-05T02:48:44;5.20;;;4.70;;
47519;SDS011;33252;48.122;11.538;2022-08-05T02:51:11;11.65;;;4.95;;
47519;SDS011;33252;48.122;11.538;2022-08-05T02:53:39;5.40;;;5.00;;
47519;SDS011;33252;48.122;11.538;2022-08-05T02:56:09;5.75;;;5.10;;
47519;SDS011;33252;48.122;11.538;2022-08-05T02:58:38;5.72;;;5.22;;
47519;SDS011;33252;48.122;11.538;2022-08-05T03:01:05;5.50;;;5.00;;
47519;SDS011;33252;48.122;11.538;2022-08-05T03:03:36;6.00;;;4.88;;
47519;SDS011;33252;48.122;11.538;2022-08-05T03:06:06;4.95;;;4.55;;
47519;SDS011;33252;48.122;11.538;2022-08-05T03:08:34;8.70;;;5.57;;
47519;SDS011;33252;48.122;11.538;2022-08-05T03:11:01;7.82;;;6.10;;
47519;SDS011;33252;48.122;11.538;2022-08-05T03:13:27;6.00;;;5.40;;
47519;SDS011;33252;48.122;11.538;2022-08-05T03:15:53;5.45;;;4.57;;
47519;SDS011;33252;48.122;11.538;2022-08-05T03:18:18;6.15;;;5.55;;
47519;SDS011;33252;48.122;11.538;2022-08-05T03:20:44;6.15;;;5.47;;
47519;SDS011;33252;48.122;11.538;2022-08-05T03:23:10;6.88;;;5.18;;
47519;SDS011;33252;48.122;11.538;2022-08-05T03:25:38;5.97;;;5.47;;
47519;SDS011;33252;48.122;11.538;2022-08-05T03:28:06;6.35;;;5.22;;
47519;SDS011;33252;48.122;11.538;2022-08-05T03:30:33;5.95;;;5.30;;
47519;SDS011;33252;48.122;11.538;2022-08-05T03:33:00;7.43;;;5.10;;
47519;SDS011;33252;48.122;11.538;2022-08-05T03:35:28;5.53;;;5.00;;
47519;SDS011;33252;48.122;11.538;2022-08-05T03:37:58;6.38;;;5.45;;
47519;SDS011;33252;48.122;11.538;2022-08-05T03:40:24;6.03;;;5.43;;
47519;SDS011;33252;48.122;11.538;2022-08-05T03:42:50;6.95;;;5.15;;
47519;SDS011;33252;48.122;11.538;2022-08-05T03:45:16;5.63;;;5.05;;
47519;SDS011;33252;48.122;11.538;2022-08-05T03:47:42;9.13;;;5.88;;
47519;SDS011;33252;48.122;11.538;2022-08-05T03:50:08;6.43;;;4.80;;
47519;SDS011;33252;48.122;11.538;2022-08-05T03:52:47;6.10;;;5.50;;
47519;SDS011;33252;48.122;11.538;2022-08-05T03:55:26;6.75;;;6.10;;
47519;SDS011;33252;48.122;11.538;2022-08-05T03:57:56;6.45;;;5.28;;
47519;SDS011;33252;48.122;11.538;2022-08-05T04:00:24;6.40;;;5.45;;
47519;SDS011;33252;48.122;11.538;2022-08-05T04:02:55;7.55;;;5.80;;
47519;SDS011;33252;48.122;11.538;2022-08-05T04:05:24;6.55;;;5.20;;
47519;SDS011;33252;48.122;11.538;2022-08-05T04:07:54;7.20;;;6.13;;
47519;SDS011;33252;48.122;11.538;2022-08-05T04:10:20;5.47;;;4.97;;
47519;SDS011;33252;48.122;11.538;2022-08-05T04:12:46;7.45;;;5.22;;
47519;SDS011;33252;48.122;11.538;2022-08-05T04:15:12;6.72;;;5.68;;
47519;SDS011;33252;48.122;11.538;2022-08-05T04:17:38;6.50;;;5.82;;
47519;SDS011;33252;48.122;11.538;2022-08-05T04:20:04;6.65;;;6.05;;
47519;SDS011;33252;48.122;11.538;2022-08-05T04:22:30;11.30;;;5.72;;
47519;SDS011;33252;48.122;11.538;2022-08-05T04:24:56;6.50;;;5.18;;
47519;SDS011;33252;48.122;11.538;2022-08-05T04:27:22;7.32;;;5.88;;
47519;SDS011;33252;48.122;11.538;2022-08-05T04:29:47;6.93;;;5.60;;
47519;SDS011;33252;48.122;11.538;2022-08-05T04:32:13;6.07;;;5.47;;
47519;SDS011;33252;48.122;11.538;2022-08-05T04:34:39;4.90;;;4.45;;
47519;SDS011;33252;48.122;11.538;2022-08-05T04:37:04;5.00;;;4.47;;
47519;SDS011;33252;48.122;11.538;2022-08-05T04:39:30;6.35;;;4.60;;
47519;SDS011;33252;48.122;11.538;2022-08-05T04:41:57;6.88;;;4.95;;
47519;SDS011;33252;48.122;11.538;2022-08-05T04:44:22;4.40;;;4.00;;
47519;SDS011;33252;48.122;11.538;2022-08-05T04:46:48;5.93;;;4.18;;
47519;SDS011;33252;48.122;11.538;2022-08-05T04:49:14;4.63;;;3.78;;
47519;SDS011;33252;48.122;11.538;2022-08-05T04:51:39;4.28;;;3.88;;
47519;SDS011;33252;48.122;11.538;2022-08-05T04:54:06;6.03;;;4.57;;
47519;SDS011;33252;48.122;11.538;2022-08-05T04:56:32;4.25;;;3.85;;
47519;SDS011;33252;48.122;11.538;2022-08-05T04:58:57;4.68;;;4.28;;
47519;SDS011;33252;48.122;11.538;2022-08-05T05:01:23;5.40;;;4.50;;
47519;SDS011;33252;48.122;11.538;2022-08-05T05:03:49;4.60;;;4.20;;
47519;SDS011;33252;48.122;11.538;2022-08-05T05:06:14;7.60;;;3.92;;
47519;SDS011;33252;48.122;11.538;2022-08-05T05:08:40;7.32;;;3.70;;
47519;SDS011;33252;48.122;11.538;2022-08-05T05:11:06;4.63;;;4.07;;
47519;SDS011;33252;48.122;11.538;2022-08-05T05:13:31;6.40;;;3.85;;
47519;SDS011;33252;48.122;11.538;2022-08-05T05:15:57;4.47;;;4.00;;
47519;SDS011;33252;48.122;11.538;2022-08-05T05:18:23;3.92;;;3.63;;
47519;SDS011;33252;48.122;11.538;2022-08-05T05:20:49;4.50;;;4.10;;
47519;SDS011;33252;48.122;11.538;2022-08-05T05:23:14;3.30;;;3.05;;
47519;SDS011;33252;48.122;11.538;2022-08-05T05:25:40;3.42;;;3.13;;
47519;SDS011;33252;48.122;11.538;2022-08-05T05:28:07;5.13;;;4.22;;
47519;SDS011;33252;48.122;11.538;2022-08-05T05:30:39;4.55;;;3.67;;
47519;SDS011;33252;48.122;11.538;2022-08-05T05:33:06;3.88;;;3.38;;
47519;SDS011;33252;48.122;11.538;2022-08-05T05:35:32;4.50;;;3.65;;
47519;SDS011;33252;48.122;11.538;2022-08-05T05:37:59;3.60;;;3.05;;
47519;SDS011;33252;48.122;11.538;2022-08-05T05:40:27;4.32;;;3.83;;
47519;SDS011;33252;48.122;11.538;2022-08-05T05:42:54;6.15;;;4.28;;
47519;SDS011;33252;48.122;11.538;2022-08-05T05:45:20;4.88;;;3.72;;
47519;SDS011;33252;48.122;11.538;2022-08-05T05:47:46;8.00;;;4.13;;
47519;SDS011;33252;48.122;11.538;2022-08-05T05:50:12;6.13;;;2.97;;
47519;SDS011;33252;48.122;11.538;2022-08-05T05:52:40;7.95;;;3.42;;
47519;SDS011;33252;48.122;11.538;2022-08-05T05:55:06;5.60;;;3.67;;
47519;SDS011;33252;48.122;11.538;2022-08-05T05:57:34;4.68;;;3.67;;
47519;SDS011;33252;48.122;11.538;2022-08-05T06:00:00;5.80;;;4.10;;
47519;SDS011;33252;48.122;11.538;2022-08-05T06:02:28;5.75;;;3.55;;
47519;SDS011;33252;48.122;11.538;2022-08-05T06:04:53;4.97;;;4.18;;
47519;SDS011;33252;48.122;11.538;2022-08-05T06:07:19;3.30;;;3.00;;
47519;SDS011;33252;48.122;11.538;2022-08-05T06:09:45;19.77;;;4.78;;
47519;SDS011;33252;48.122;11.538;2022-08-05T06:12:10;4.97;;;3.15;;
47519;SDS011;33252;48.122;11.538;2022-08-05T06:14:36;4.20;;;3.80;;
47519;SDS011;33252;48.122;11.538;2022-08-05T06:17:02;6.28;;;3.72;;
47519;SDS011;33252;48.122;11.538;2022-08-05T06:19:28;9.80;;;4.40;;
47519;SDS011;33252;48.122;11.538;2022-08-05T06:21:54;5.78;;;3.30;;
47519;SDS011;33252;48.122;11.538;2022-08-05T06:24:20;4.03;;;3.17;;
47519;SDS011;33252;48.122;11.538;2022-08-05T06:26:45;3.85;;;3.55;;
47519;SDS011;33252;48.122;11.538;2022-08-05T06:29:11;4.57;;;3.40;;
47519;SDS011;33252;48.122;11.538;2022-08-05T06:31:36;3.30;;;3.00;;
47519;SDS011;33252;48.122;11.538;2022-08-05T06:34:02;5.82;;;3.33;;
47519;SDS011;33252;48.122;11.538;2022-08-05T06:36:29;3.50;;;3.20;;
47519;SDS011;33252;48.122;11.538;2022-08-05T06:38:55;5.35;;;3.45;;
47519;SDS011;33252;48.122;11.538;2022-08-05T06:41:20;3.75;;;3.45;;
47519;SDS011;33252;48.122;11.538;2022-08-05T06:43:47;3.75;;;3.45;;
47519;SDS011;33252;48.122;11.538;2022-08-05T06:46:13;3.65;;;3.10;;
47519;SDS011;33252;48.122;11.538;2022-08-05T06:48:39;3.67;;;2.97;;
47519;SDS011;33252;48.122;11.538;2022-08-05T06:51:05;5.82;;;3.53;;
47519;SDS011;33252;48.122;11.538;2022-08-05T06:53:31;3.67;;;3.28;;
47519;SDS011;33252;48.122;11.538;2022-08-05T06:55:57;3.63;;;3.25;;
47519;SDS011;33252;48.122;11.538;2022-08-05T06:58:24;4.43;;;3.28;;
47519;SDS011;33252;48.122;11.538;2022-08-05T07:00:51;5.70;;;3.42;;
47519;SDS011;33252;48.122;11.538;2022-08-05T07:03:17;4.35;;;3.28;;
47519;SDS011;33252;48.122;11.538;2022-08-05T07:05:43;5.63;;;4.15;;
47519;SDS011;33252;48.122;11.538;2022-08-05T07:08:09;6.53;;;3.40;;
47519;SDS011;33252;48.122;11.538;2022-08-05T07:10:34;4.05;;;3.22;;
47519;SDS011;33252;48.122;11.538;2022-08-05T07:13:00;3.10;;;2.90;;
47519;SDS011;33252;48.122;11.538;2022-08-05T07:15:45;5.50;;;2.95;;
47519;SDS011;33252;48.122;11.538;2022-08-05T07:18:29;4.10;;;3.35;;
47519;SDS011;33252;48.122;11.538;2022-08-05T07:20:54;4.70;;;3.53;;
47519;SDS011;33252;48.122;11.538;2022-08-05T07:23:20;4.15;;;3.65;;
47519;SDS011;33252;48.122;11.538;2022-08-05T07:25:46;6.85;;;3.20;;
47519;SDS011;33252;48.122;11.538;2022-08-05T07:28:12;4.15;;;3.75;;
47519;SDS011;33252;48.122;11.538;2022-08-05T07:30:37;3.63;;;3.30;;
47519;SDS011;33252;48.122;11.538;2022-08-05T07:33:04;6.60;;;3.40;;
47519;SDS011;33252;48.122;11.538;2022-08-05T07:35:31;3.65;;;2.88;;
47519;SDS011;33252;48.122;11.538;2022-08-05T07:37:57;6.38;;;3.38;;
47519;SDS011;33252;48.122;11.538;2022-08-05T07:40:22;3.25;;;2.95;;
47519;SDS011;33252;48.122;11.538;2022-08-05T07:42:48;7.55;;;4.15;;
47519;SDS011;33252;48.122;11.538;2022-08-05T07:45:14;3.88;;;2.92;;
47519;SDS011;33252;48.122;11.538;2022-08-05T07:47:40;7.90;;;3.75;;
47519;SDS011;33252;48.122;11.538;2022-08-05T07:50:06;5.95;;;3.70;;
47519;SDS011;33252;48.122;11.538;2022-08-05T07:52:36;7.25;;;3.80;;
47519;SDS011;33252;48.122;11.538;2022-08-05T07:55:04;6.05;;;3.88;;
47519;SDS011;33252;48.122;11.538;2022-08-05T07:57:30;5.30;;;4.00;;
47519;SDS011;33252;48.122;11.538;2022-08-05T07:59:56;4.85;;;4.07;;
47519;SDS011;33252;48.122;11.538;2022-08-05T08:02:25;5.07;;;3.97;;
47519;SDS011;33252;48.122;11.538;2022-08-05T08:04:52;8.10;;;3.88;;
47519;SDS011;33252;48.122;11.538;2022-08-05T08:07:19;6.63;;;4.10;;
47519;SDS011;33252;48.122;11.538;2022-08-05T08:09:45;5.20;;;3.42;;
47519;SDS011;33252;48.122;11.538;2022-08-05T08:12:11;4.80;;;3.67;;
47519;SDS011;33252;48.122;11.538;2022-08-05T08:14:38;7.25;;;4.43;;
47519;SDS011;33252;48.122;11.538;2022-08-05T08:17:04;6.13;;;3.70;;
47519;SDS011;33252;48.122;11.538;2022-08-05T08:19:34;6.07;;;4.20;;
47519;SDS011;33252;48.122;11.538;2022-08-05T08:22:01;6.22;;;4.10;;
47519;SDS011;33252;48.122;11.538;2022-08-05T08:24:26;7.65;;;4.47;;
47519;SDS011;33252;48.122;11.538;2022-08-05T08:26:52;7.78;;;4.22;;
47519;SDS011;33252;48.122;11.538;2022-08-05T08:29:17;5.45;;;4.60;;
47519;SDS011;33252;48.122;11.538;2022-08-05T08:31:43;5.03;;;4.53;;
47519;SDS011;33252;48.122;11.538;2022-08-05T08:34:09;6.07;;;5.13;;
47519;SDS011;33252;48.122;11.538;2022-08-05T08:36:34;5.65;;;4.88;;
47519;SDS011;33252;48.122;11.538;2022-08-05T08:39:00;5.78;;;4.40;;
47519;SDS011;33252;48.122;11.538;2022-08-05T08:41:26;4.53;;;4.03;;
47519;SDS011;33252;48.122;11.538;2022-08-05T08:43:55;6.13;;;5.50;;
47519;SDS011;33252;48.122;11.538;2022-08-05T08:46:21;8.10;;;6.00;;
47519;SDS011;33252;48.122;11.538;2022-08-05T08:48:51;8.23;;;4.88;;
47519;SDS011;33252;48.122;11.538;2022-08-05T08:51:19;8.77;;;4.93;;
47519;SDS011;33252;48.122;11.538;2022-08-05T08:53:45;4.70;;;4.40;;
47519;SDS011;33252;48.122;11.538;2022-08-05T08:56:12;5.28;;;4.78;;
47519;SDS011;33252;48.122;11.538;2022-08-05T08:58:39;5.35;;;4.60;;
47519;SDS011;33252;48.122;11.538;2022-08-05T09:01:06;11.52;;;5.15;;
47519;SDS011;33252;48.122;11.538;2022-08-05T09:03:32;6.05;;;5.15;;
47519;SDS011;33252;48.122;11.538;2022-08-05T09:06:00;9.82;;;5.07;;
47519;SDS011;33252;48.122;11.538;2022-08-05T09:08:25;5.63;;;4.20;;
47519;SDS011;33252;48.122;11.538;2022-08-05T09:10:51;6.05;;;5.03;;
47519;SDS011;33252;48.122;11.538;2022-08-05T09:13:17;5.85;;;5.22;;
47519;SDS011;33252;48.122;11.538;2022-08-05T09:15:44;7.95;;;5.40;;
47519;SDS011;33252;48.122;11.538;2022-08-05T09:18:10;9.23;;;4.13;;
47519;SDS011;33252;48.122;11.538;2022-08-05T09:20:37;7.20;;;4.68;;
47519;SDS011;33252;48.122;11.538;2022-08-05T09:23:15;10.20;;;4.50;;
47519;SDS011;33252;48.122;11.538;2022-08-05T09:25:44;5.20;;;4.47;;
47519;SDS011;33252;48.122;11.538;2022-08-05T09:28:19;7.13;;;4.50;;
47519;SDS011;33252;48.122;11.538;2022-08-05T09:30:59;5.43;;;4.82;;
47519;SDS011;33252;48.122;11.538;2022-08-05T09:33:55;6.63;;;4.40;;
47519;SDS011;33252;48.122;11.538;2022-08-05T09:36:20;9.45;;;5.07;;
47519;SDS011;33252;48.122;11.538;2022-08-05T09:41:21;4.47;;;4.13;;
47519;SDS011;33252;48.122;11.538;2022-08-05T09:43:47;5.03;;;4.13;;
47519;SDS011;33252;48.122;11.538;2022-08-05T09:49:07;7.35;;;5.07;;
47519;SDS011;33252;48.122;11.538;2022-08-05T09:51:47;6.00;;;3.85;;
47519;SDS011;33252;48.122;11.538;2022-08-05T09:54:13;10.82;;;4.88;;
47519;SDS011;33252;48.122;11.538;2022-08-05T09:56:39;5.15;;;4.30;;
47519;SDS011;33252;48.122;11.538;2022-08-05T09:59:11;8.43;;;4.77;;
47519;SDS011;33252;48.122;11.538;2022-08-05T10:01:40;6.40;;;4.15;;
47519;SDS011;33252;48.122;11.538;2022-08-05T10:04:11;5.90;;;4.45;;
47519;SDS011;33252;48.122;11.538;2022-08-05T10:06:42;6.85;;;4.68;;
47519;SDS011;33252;48.122;11.538;2022-08-05T10:09:18;4.57;;;4.13;;
47519;SDS011;33252;48.122;11.538;2022-08-05T10:11:45;4.95;;;4.25;;
47519;SDS011;33252;48.122;11.538;2022-08-05T10:14:25;4.80;;;4.18;;
47519;SDS011;33252;48.122;11.538;2022-08-05T10:16:52;6.63;;;4.15;;
47519;SDS011;33252;48.122;11.538;2022-08-05T10:19:22;6.45;;;4.00;;
47519;SDS011;33252;48.122;11.538;2022-08-05T10:21:49;4.85;;;3.53;;
47519;SDS011;33252;48.122;11.538;2022-08-05T10:24:18;4.50;;;3.78;;
47519;SDS011;33252;48.122;11.538;2022-08-05T10:26:47;5.80;;;4.00;;
47519;SDS011;33252;48.122;11.538;2022-08-05T10:29:13;7.68;;;4.07;;
47519;SDS011;33252;48.122;11.538;2022-08-05T10:31:39;3.60;;;3.20;;
47519;SDS011;33252;48.122;11.538;2022-08-05T10:34:08;5.82;;;3.80;;
47519;SDS011;33252;48.122;11.538;2022-08-05T10:36:38;4.03;;;3.70;;
47519;SDS011;33252;48.122;11.538;2022-08-05T10:39:38;4.13;;;3.50;;
47519;SDS011;33252;48.122;11.538;2022-08-05T10:42:01;4.57;;;3.78;;
47519;SDS011;33252;48.122;11.538;2022-08-05T10:44:43;5.70;;;4.30;;
47519;SDS011;33252;48.122;11.538;2022-08-05T10:47:11;6.88;;;3.78;;
47519;SDS011;33252;48.122;11.538;2022-08-05T10:49:58;5.50;;;3.90;;
47519;SDS011;33252;48.122;11.538;2022-08-05T10:52:42;6.03;;;3.60;;
47519;SDS011;33252;48.122;11.538;2022-08-05T10:55:11;7.40;;;4.72;;
47519;SDS011;33252;48.122;11.538;2022-08-05T10:57:38;4.63;;;3.67;;
47519;SDS011;33252;48.122;11.538;2022-08-05T11:00:09;8.57;;;3.58;;
47519;SDS011;33252;48.122;11.538;2022-08-05T11:02:35;8.50;;;3.47;;
47519;SDS011;33252;48.122;11.538;2022-08-05T11:05:03;7.38;;;3.75;;
47519;SDS011;33252;48.122;11.538;2022-08-05T11:07:32;6.88;;;3.85;;
47519;SDS011;33252;48.122;11.538;2022-08-05T11:09:59;8.60;;;3.65;;
47519;SDS011;33252;48.122;11.538;2022-08-05T11:15:04;7.18;;;3.47;;
47519;SDS011;33252;48.122;11.538;2022-08-05T11:17:32;10.05;;;4.10;;
47519;SDS011;33252;48.122;11.538;2022-08-05T11:20:02;9.18;;;3.95;;
47519;SDS011;33252;48.122;11.538;2022-08-05T11:33:30;4.70;;;2.90;;
47519;SDS011;33252;48.122;11.538;2022-08-05T11:35:58;4.43;;;3.33;;
47519;SDS011;33252;48.122;11.538;2022-08-05T11:41:24;3.67;;;3.13;;
47519;SDS011;33252;48.122;11.538;2022-08-05T11:46:31;4.88;;;3.13;;
47519;SDS011;33252;48.122;11.538;2022-08-05T11:48:59;7.38;;;3.78;;
47519;SDS011;33252;48.122;11.538;2022-08-05T11:51:27;3.70;;;3.28;;
47519;SDS011;33252;48.122;11.538;2022-08-05T11:53:54;3.83;;;2.78;;
47519;SDS011;33252;48.122;11.538;2022-08-05T11:56:20;4.93;;;3.80;;
47519;SDS011;33252;48.122;11.538;2022-08-05T11:58:47;6.43;;;3.50;;
47519;SDS011;33252;48.122;11.538;2022-08-05T12:01:18;3.85;;;2.60;;
47519;SDS011;33252;48.122;11.538;2022-08-05T12:03:46;4.07;;;3.25;;
47519;SDS011;33252;48.122;11.538;2022-08-05T12:06:20;4.15;;;3.75;;
47519;SDS011;33252;48.122;11.538;2022-08-05T12:08:53;7.65;;;3.75;;
47519;SDS011;33252;48.122;11.538;2022-08-05T12:11:23;5.78;;;3.00;;
47519;SDS011;33252;48.122;11.538;2022-08-05T12:13:56;4.32;;;3.15;;
47519;SDS011;33252;48.122;11.538;2022-08-05T12:16:23;4.68;;;3.08;;
47519;SDS011;33252;48.122;11.538;2022-08-05T12:18:50;7.20;;;2.78;;
47519;SDS011;33252;48.122;11.538;2022-08-05T12:21:17;4.88;;;3.10;;
47519;SDS011;33252;48.122;11.538;2022-08-05T12:26:18;4.78;;;2.70;;
47519;SDS011;33252;48.122;11.538;2022-08-05T12:28:44;5.28;;;3.42;;
47519;SDS011;33252;48.122;11.538;2022-08-05T12:31:10;5.72;;;3.53;;
47519;SDS011;33252;48.122;11.538;2022-08-05T12:33:35;3.15;;;2.88;;
47519;SDS011;33252;48.122;11.538;2022-08-05T12:36:02;3.97;;;3.58;;
47519;SDS011;33252;48.122;11.538;2022-08-05T12:38:29;8.07;;;3.03;;
47519;SDS011;33252;48.122;11.538;2022-08-05T12:40:55;3.88;;;2.80;;
47519;SDS011;33252;48.122;11.538;2022-08-05T12:43:21;4.85;;;2.50;;
47519;SDS011;33252;48.122;11.538;2022-08-05T12:45:54;3.50;;;3.20;;
47519;SDS011;33252;48.122;11.538;2022-08-05T12:48:21;4.32;;;2.42;;
47519;SDS011;33252;48.122;11.538;2022-08-05T12:51:08;6.75;;;3.00;;
47519;SDS011;33252;48.122;11.538;2022-08-05T12:53:44;6.03;;;3.40;;
47519;SDS011;33252;48.122;11.538;2022-08-05T12:56:23;6.03;;;2.88;;
47519;SDS011;33252;48.122;11.538;2022-08-05T13:01:38;4.53;;;2.85;;
47519;SDS011;33252;48.122;11.538;2022-08-05T13:04:05;4.25;;;3.25;;
47519;SDS011;33252;48.122;11.538;2022-08-05T13:06:31;5.75;;;3.47;;
47519;SDS011;33252;48.122;11.538;2022-08-05T13:08:56;5.63;;;3.42;;
47519;SDS011;33252;48.122;11.538;2022-08-05T13:11:29;6.13;;;2.88;;
47519;SDS011;33252;48.122;11.538;2022-08-05T13:13:56;4.40;;;3.00;;
47519;SDS011;33252;48.122;11.538;2022-08-05T13:16:22;7.32;;;3.08;;
47519;SDS011;33252;48.122;11.538;2022-08-05T13:18:51;6.05;;;3.83;;
47519;SDS011;33252;48.122;11.538;2022-08-05T13:21:18;4.88;;;3.40;;
47519;SDS011;33252;48.122;11.538;2022-08-05T13:23:43;4.80;;;3.17;;
47519;SDS011;33252;48.122;11.538;2022-08-05T13:26:09;4.88;;;3.40;;
47519;SDS011;33252;48.122;11.538;2022-08-05T13:28:35;4.95;;;3.38;;
47519;SDS011;33252;48.122;11.538;2022-08-05T13:31:01;7.60;;;3.17;;
47519;SDS011;33252;48.122;11.538;2022-08-05T13:33:26;3.58;;;3.33;;
47519;SDS011;33252;48.122;11.538;2022-08-05T13:35:52;3.92;;;3.30;;
47519;SDS011;33252;48.122;11.538;2022-08-05T13:38:19;4.03;;;2.83;;
47519;SDS011;33252;48.122;11.538;2022-08-05T13:40:44;3.67;;;3.30;;
47519;SDS011;33252;48.122;11.538;2022-08-05T13:43:10;6.05;;;3.30;;
47519;SDS011;33252;48.122;11.538;2022-08-05T13:45:36;5.03;;;2.95;;
47519;SDS011;33252;48.122;11.538;2022-08-05T13:48:01;3.13;;;2.83;;
47519;SDS011;33252;48.122;11.538;2022-08-05T13:50:27;4.95;;;3.10;;
47519;SDS011;33252;48.122;11.538;2022-08-05T13:52:53;4.35;;;2.97;;
47519;SDS011;33252;48.122;11.538;2022-08-05T13:55:19;3.78;;;2.70;;
47519;SDS011;33252;48.122;11.538;2022-08-05T13:57:44;3.58;;;2.58;;
47519;SDS011;33252;48.122;11.538;2022-08-05T14:00:10;4.80;;;2.95;;
47519;SDS011;33252;48.122;11.538;2022-08-05T14:02:36;6.15;;;3.28;;
47519;SDS011;33252;48.122;11.538;2022-08-05T14:05:02;5.55;;;2.88;;
47519;SDS011;33252;48.122;11.538;2022-08-05T14:07:38;4.50;;;2.63;;
47519;SDS011;33252;48.122;11.538;2022-08-05T14:12:35;3.05;;;2.67;;
47519;SDS011;33252;48.122;11.538;2022-08-05T14:15:01;3.90;;;2.70;;
47519;SDS011;33252;48.122;11.538;2022-08-05T14:17:27;6.43;;;2.95;;
47519;SDS011;33252;48.122;11.538;2022-08-05T14:19:53;3.35;;;2.58;;
47519;SDS011;33252;48.122;11.538;2022-08-05T14:22:19;4.30;;;2.67;;
47519;SDS011;33252;48.122;11.538;2022-08-05T14:24:45;4.25;;;2.38;;
47519;SDS011;33252;48.122;11.538;2022-08-05T14:27:11;5.47;;;2.55;;
47519;SDS011;33252;48.122;11.538;2022-08-05T14:29:37;5.40;;;3.00;;
47519;SDS011;33252;48.122;11.538;2022-08-05T14:32:03;5.10;;;3.15;;
47519;SDS011;33252;48.122;11.538;2022-08-05T14:34:29;6.88;;;3.08;;
47519;SDS011;33252;48.122;11.538;2022-08-05T14:36:54;4.93;;;2.33;;
47519;SDS011;33252;48.122;11.538;2022-08-05T14:39:20;4.10;;;3.00;;
47519;SDS011;33252;48.122;11.538;2022-08-05T14:41:46;5.75;;;3.60;;
47519;SDS011;33252;48.122;11.538;2022-08-05T14:44:11;5.32;;;4.47;;
47519;SDS011;33252;48.122;11.538;2022-08-05T14:46:37;3.45;;;3.00;;
47519;SDS011;33252;48.122;11.538;2022-08-05T14:49:03;2.97;;;2.78;;
47519;SDS011;33252;48.122;11.538;2022-08-05T14:51:30;3.53;;;2.78;;
47519;SDS011;33252;48.122;11.538;2022-08-05T14:53:56;4.28;;;2.78;;
47519;SDS011;33252;48.122;11.538;2022-08-05T14:56:22;2.70;;;2.50;;
47519;SDS011;33252;48.122;11.538;2022-08-05T14:58:48;3.60;;;3.38;;
47519;SDS011;33252;48.122;11.538;2022-08-05T15:01:13;3.05;;;2.75;;
47519;SDS011;33252;48.122;11.538;2022-08-05T15:03:39;4.65;;;2.60;;
47519;SDS011;33252;48.122;11.538;2022-08-05T15:06:05;2.80;;;2.60;;
47519;SDS011;33252;48.122;11.538;2022-08-05T15:08:31;9.45;;;3.53;;
47519;SDS011;33252;48.122;11.538;2022-08-05T15:10:57;4.57;;;2.60;;
47519;SDS011;33252;48.122;11.538;2022-08-05T15:13:22;3.83;;;2.85;;
47519;SDS011;33252;48.122;11.538;2022-08-05T15:15:48;2.63;;;2.42;;
47519;SDS011;33252;48.122;11.538;2022-08-05T15:18:14;6.78;;;3.92;;
47519;SDS011;33252;48.122;11.538;2022-08-05T15:20:40;14.30;;;4.20;;
47519;SDS011;33252;48.122;11.538;2022-08-05T15:23:06;4.68;;;2.70;;